createdAt,value
2019-05-11T00:00:05.501Z,9.60
2019-05-11T00:02:34.569Z,9.60
2019-05-11T00:05:05.357Z,9.60
2019-05-11T00:07:34.717Z,9.70
2019-05-11T00:10:05.958Z,9.60
2019-05-11T00:12:35.391Z,9.60
2019-05-11T00:15:05.335Z,9.60
2019-05-11T00:17:34.422Z,9.60
2019-05-11T00:20:04.577Z,9.60
2019-05-11T00:22:33.690Z,9.60
2019-05-11T00:25:02.842Z,9.60
2019-05-11T00:27:31.942Z,9.60
2019-05-11T00:30:01.328Z,9.60
2019-05-11T00:32:30.737Z,9.60
2019-05-11T00:35:00.558Z,9.60
2019-05-11T00:37:29.669Z,9.60
2019-05-11T00:40:13.338Z,9.60
2019-05-11T00:42:29.745Z,9.60
2019-05-11T00:44:59.073Z,9.60
2019-05-11T00:47:28.206Z,9.60
2019-05-11T00:49:57.586Z,9.60
2019-05-11T00:52:26.914Z,9.60
2019-05-11T00:54:56.013Z,9.60
2019-05-11T00:57:25.375Z,9.60
2019-05-11T00:59:54.478Z,9.60
2019-05-11T01:02:23.809Z,9.60
2019-05-11T01:04:53.158Z,9.70
2019-05-11T01:07:22.354Z,9.70
2019-05-11T01:09:51.406Z,9.70
2019-05-11T01:12:20.539Z,9.70
2019-05-11T01:14:49.680Z,9.70
2019-05-11T01:17:18.817Z,9.80
2019-05-11T01:19:47.889Z,9.80
2019-05-11T01:22:17.027Z,9.80
2019-05-11T01:24:46.118Z,9.80
2019-05-11T01:27:15.476Z,9.80
2019-05-11T01:29:44.620Z,9.70
2019-05-11T01:32:14.074Z,9.70
2019-05-11T01:34:43.140Z,9.80
2019-05-11T01:37:12.245Z,9.70
2019-05-11T01:39:41.918Z,9.80
2019-05-11T01:42:11.045Z,9.80
2019-05-11T01:44:40.407Z,9.90
2019-05-11T01:47:10.026Z,9.80
2019-05-11T01:49:39.386Z,9.80
2019-05-11T01:52:08.481Z,9.90
2019-05-11T01:54:37.925Z,9.90
2019-05-11T01:57:07.300Z,9.90
2019-05-11T01:59:36.652Z,9.90
2019-05-11T02:02:05.788Z,10.00
2019-05-11T02:04:35.125Z,9.80
2019-05-11T02:07:04.525Z,9.90
2019-05-11T02:09:33.860Z,9.90
2019-05-11T02:12:03.198Z,10.00
2019-05-11T02:14:32.323Z,10.10
2019-05-11T02:17:01.431Z,10.10
2019-05-11T02:19:30.513Z,10.10
2019-05-11T02:21:59.601Z,10.00
2019-05-11T02:24:28.941Z,10.10
2019-05-11T02:26:58.617Z,10.10
2019-05-11T02:29:27.667Z,10.00
2019-05-11T02:31:56.796Z,10.00
2019-05-11T02:34:25.865Z,9.90
2019-05-11T02:36:55.217Z,9.90
2019-05-11T02:39:24.594Z,9.90
2019-05-11T02:41:53.952Z,10.00
2019-05-11T02:44:23.030Z,9.90
2019-05-11T02:46:52.423Z,9.80
2019-05-11T02:49:21.819Z,9.80
2019-05-11T02:51:51.049Z,9.80
2019-05-11T02:54:20.189Z,9.80
2019-05-11T02:56:49.294Z,9.70
2019-05-11T02:59:18.707Z,9.70
2019-05-11T03:01:47.853Z,9.70
2019-05-11T03:04:17.239Z,9.70
2019-05-11T03:06:46.344Z,9.70
2019-05-11T03:09:15.690Z,9.70
2019-05-11T03:11:54.916Z,9.60
2019-05-11T03:14:16.109Z,9.70
2019-05-11T03:16:45.203Z,9.50
2019-05-11T03:19:14.309Z,9.60
2019-05-11T03:21:43.698Z,9.70
2019-05-11T03:24:12.793Z,9.60
2019-05-11T03:26:41.907Z,9.60
2019-05-11T03:29:11.046Z,9.60
2019-05-11T03:31:40.139Z,9.60
2019-05-11T03:34:09.245Z,9.60
2019-05-11T03:36:38.354Z,9.60
2019-05-11T03:39:07.469Z,9.60
2019-05-11T03:41:36.588Z,9.60
2019-05-11T03:44:05.682Z,9.70
2019-05-11T03:46:34.814Z,9.60
2019-05-11T03:49:04.187Z,9.60
2019-05-11T03:51:33.306Z,9.60
2019-05-11T03:54:02.719Z,9.60
2019-05-11T03:56:31.831Z,9.60
2019-05-11T03:59:00.961Z,9.70
2019-05-11T04:01:30.044Z,9.60
2019-05-11T04:03:59.175Z,9.60
2019-05-11T04:06:28.267Z,9.50
2019-05-11T04:08:57.405Z,9.50
2019-05-11T04:11:27.120Z,9.50
2019-05-11T04:13:56.244Z,9.60
2019-05-11T04:16:25.355Z,9.50
2019-05-11T04:18:54.482Z,9.50
2019-05-11T04:21:23.557Z,9.70
2019-05-11T04:23:52.712Z,9.70
2019-05-11T04:26:22.066Z,9.70
2019-05-11T04:28:51.162Z,9.50
2019-05-11T04:31:20.498Z,9.50
2019-05-11T04:33:49.590Z,9.60
2019-05-11T04:36:18.950Z,9.70
2019-05-11T04:38:48.805Z,9.50
2019-05-11T04:41:17.877Z,9.70
2019-05-11T04:43:47.304Z,9.60
2019-05-11T04:46:16.415Z,9.80
2019-05-11T04:48:45.516Z,9.80
2019-05-11T04:51:14.700Z,9.90
2019-05-11T04:53:43.753Z,10.00
2019-05-11T04:56:13.170Z,9.90
2019-05-11T04:58:42.513Z,9.90
2019-05-11T05:01:11.867Z,10.00
2019-05-11T05:03:41.562Z,10.10
2019-05-11T05:06:22.193Z,10.10
2019-05-11T05:08:42.873Z,10.20
2019-05-11T05:11:11.993Z,10.10
2019-05-11T05:13:41.356Z,10.20
2019-05-11T05:16:10.471Z,10.20
2019-05-11T05:18:39.908Z,10.30
2019-05-11T05:21:09.276Z,10.20
2019-05-11T05:23:38.352Z,10.20
2019-05-11T05:26:07.446Z,10.30
2019-05-11T05:28:36.534Z,10.30
2019-05-11T05:31:05.905Z,10.20
2019-05-11T05:33:35.013Z,10.20
2019-05-11T05:36:04.194Z,10.20
2019-05-11T05:38:33.346Z,10.10
2019-05-11T05:41:02.663Z,10.00
2019-05-11T05:43:31.900Z,10.10
2019-05-11T05:46:01.004Z,10.30
2019-05-11T05:48:30.348Z,10.30
2019-05-11T05:50:59.445Z,10.30
2019-05-11T05:53:28.566Z,10.20
2019-05-11T05:55:57.701Z,10.30
2019-05-11T05:58:26.785Z,10.30
2019-05-11T06:00:55.965Z,10.30
2019-05-11T06:03:25.335Z,10.40
2019-05-11T06:05:54.476Z,10.40
2019-05-11T06:08:23.854Z,10.40
2019-05-11T06:10:53.237Z,10.50
2019-05-11T06:13:22.319Z,10.60
2019-05-11T06:15:51.429Z,10.60
2019-05-11T06:18:20.851Z,10.50
2019-05-11T06:20:49.977Z,10.50
2019-05-11T06:23:19.181Z,10.60
2019-05-11T06:25:48.395Z,10.70
2019-05-11T06:28:17.542Z,10.80
2019-05-11T06:30:46.646Z,10.90
2019-05-11T06:33:15.795Z,10.80
2019-05-11T06:35:45.434Z,10.90
2019-05-11T06:38:14.562Z,11.20
2019-05-11T06:40:43.732Z,11.20
2019-05-11T06:43:12.897Z,11.10
2019-05-11T06:45:41.980Z,11.10
2019-05-11T06:48:11.106Z,11.10
2019-05-11T06:50:40.217Z,11.10
2019-05-11T06:53:09.353Z,10.90
2019-05-11T06:55:38.641Z,11.00
2019-05-11T06:58:07.720Z,10.90
2019-05-11T07:00:37.113Z,10.90
2019-05-11T07:03:06.468Z,10.70
2019-05-11T07:05:35.821Z,10.80
2019-05-11T07:08:04.934Z,10.90
2019-05-11T07:10:34.042Z,10.90
2019-05-11T07:13:03.170Z,10.90
2019-05-11T07:15:32.548Z,10.80
2019-05-11T07:18:02.154Z,11.00
2019-05-11T07:20:31.527Z,10.80
2019-05-11T07:23:00.895Z,10.90
2019-05-11T07:25:29.970Z,10.80
2019-05-11T07:27:59.099Z,10.90
2019-05-11T07:30:31.484Z,11.00
2019-05-11T07:33:01.095Z,10.90
2019-05-11T07:35:30.569Z,10.90
2019-05-11T07:37:59.912Z,11.00
2019-05-11T07:40:29.034Z,10.90
2019-05-11T07:42:58.959Z,10.80
2019-05-11T07:45:28.517Z,10.80
2019-05-11T07:47:58.979Z,10.80
2019-05-11T07:50:28.594Z,10.80
2019-05-11T07:52:58.839Z,10.90
2019-05-11T07:55:28.386Z,10.80
2019-05-11T07:57:58.647Z,10.80
2019-05-11T08:00:28.140Z,10.90
2019-05-11T08:02:58.490Z,10.80
2019-05-11T08:05:28.348Z,10.90
2019-05-11T08:07:59.569Z,10.80
2019-05-11T08:10:28.622Z,10.60
2019-05-11T08:12:58.834Z,10.60
2019-05-11T08:15:28.516Z,10.50
2019-05-11T08:17:58.001Z,10.70
2019-05-11T08:20:28.053Z,10.50
2019-05-11T08:22:58.701Z,10.60
2019-05-11T08:25:28.690Z,10.60
2019-05-11T08:27:58.947Z,10.50
2019-05-11T08:30:28.610Z,10.60
2019-05-11T08:32:58.357Z,10.40
2019-05-11T08:35:31.072Z,10.40
2019-05-11T08:37:58.657Z,10.40
2019-05-11T08:40:28.871Z,10.30
2019-05-11T08:42:58.369Z,10.30
2019-05-11T08:45:28.155Z,10.30
2019-05-11T08:47:58.115Z,10.30
2019-05-11T08:50:28.078Z,10.30
2019-05-11T08:52:58.223Z,10.20
2019-05-11T08:55:29.003Z,10.30
2019-05-11T08:57:58.663Z,10.30
2019-05-11T09:00:28.496Z,10.30
2019-05-11T09:02:58.366Z,10.30
2019-05-11T09:05:28.155Z,10.20
2019-05-11T09:07:57.965Z,10.30
2019-05-11T09:10:28.235Z,10.40
2019-05-11T09:12:59.093Z,10.20
2019-05-11T09:15:36.298Z,10.30
2019-05-11T09:17:59.110Z,10.60
2019-05-11T09:20:28.678Z,10.40
2019-05-11T09:22:58.985Z,10.50
2019-05-11T09:25:28.378Z,10.50
2019-05-11T09:27:58.783Z,10.40
2019-05-11T09:30:28.934Z,10.10
2019-05-11T09:32:58.309Z,10.10
2019-05-11T09:35:29.174Z,10.20
2019-05-11T09:37:58.927Z,10.00
2019-05-11T09:40:28.526Z,10.20
2019-05-11T09:42:58.548Z,10.20
2019-05-11T09:45:28.070Z,10.10
2019-05-11T09:47:58.226Z,10.20
2019-05-11T09:50:28.347Z,10.30
2019-05-11T09:52:58.214Z,10.20
2019-05-11T09:55:28.282Z,10.20
2019-05-11T09:57:58.096Z,10.30
2019-05-11T10:00:28.290Z,10.30
2019-05-11T10:02:57.812Z,10.30
2019-05-11T10:05:28.650Z,12.10
2019-05-11T10:07:58.955Z,11.90
2019-05-11T10:10:29.058Z,11.80
2019-05-11T10:12:59.160Z,11.90
2019-05-11T10:15:28.689Z,12.20
2019-05-11T10:17:58.885Z,12.40
2019-05-11T10:20:28.763Z,12.20
2019-05-11T10:22:58.198Z,12.10
2019-05-11T10:25:28.728Z,12.30
2019-05-11T10:27:58.445Z,12.10
2019-05-11T10:30:28.229Z,11.90
2019-05-11T10:32:57.890Z,12.30
2019-05-11T10:35:28.860Z,12.40
2019-05-11T10:37:58.398Z,13.20
2019-05-11T10:40:28.282Z,12.90
2019-05-11T10:42:58.965Z,13.10
2019-05-11T10:45:28.693Z,13.10
2019-05-11T10:48:00.959Z,13.00
2019-05-11T10:50:29.145Z,13.50
2019-05-11T10:52:59.017Z,13.50
2019-05-11T10:55:28.263Z,13.40
2019-05-11T10:57:58.075Z,13.80
2019-05-11T11:00:28.284Z,13.50
2019-05-11T11:02:58.386Z,13.70
2019-05-11T11:05:28.073Z,14.10
2019-05-11T11:07:58.836Z,13.50
2019-05-11T11:10:28.735Z,15.10
2019-05-11T11:12:58.265Z,15.10
2019-05-11T11:15:28.842Z,15.00
2019-05-11T11:17:58.395Z,15.10
2019-05-11T11:20:28.188Z,15.30
2019-05-11T11:22:58.295Z,14.90
2019-05-11T11:25:28.394Z,15.10
2019-05-11T11:27:58.116Z,15.30
2019-05-11T11:30:28.544Z,15.20
2019-05-11T11:32:58.772Z,15.70
2019-05-11T11:35:28.294Z,15.60
2019-05-11T11:37:58.473Z,14.80
2019-05-11T11:40:28.326Z,14.30
2019-05-11T11:42:58.220Z,13.60
2019-05-11T11:45:28.791Z,13.50
2019-05-11T11:47:58.199Z,13.50
2019-05-11T11:50:28.316Z,13.70
2019-05-11T11:52:58.031Z,13.80
2019-05-11T11:55:29.010Z,13.80
2019-05-11T11:57:58.925Z,13.80
2019-05-11T12:00:28.840Z,13.70
2019-05-11T12:02:58.437Z,13.80
2019-05-11T12:05:28.378Z,13.70
2019-05-11T12:07:58.136Z,13.50
2019-05-11T12:10:28.748Z,13.80
2019-05-11T12:12:58.285Z,13.50
2019-05-11T12:15:28.408Z,13.50
2019-05-11T12:17:58.765Z,13.60
2019-05-11T12:20:28.713Z,13.50
2019-05-11T12:22:58.314Z,13.60
2019-05-11T12:25:27.955Z,13.70
2019-05-11T12:27:57.783Z,13.80
2019-05-11T12:30:28.488Z,13.50
2019-05-11T12:32:57.840Z,13.20
2019-05-11T12:35:28.433Z,13.70
2019-05-11T12:37:58.710Z,13.50
2019-05-11T12:40:28.473Z,13.70
2019-05-11T12:42:59.058Z,14.00
2019-05-11T12:45:29.620Z,13.90
2019-05-11T12:47:58.815Z,13.90
2019-05-11T12:50:28.567Z,14.40
2019-05-11T12:52:58.856Z,14.30
2019-05-11T12:55:28.625Z,14.30
2019-05-11T12:57:58.207Z,14.20
2019-05-11T13:00:31.258Z,14.20
2019-05-11T13:02:58.929Z,14.30
2019-05-11T13:05:28.650Z,13.90
2019-05-11T13:07:58.658Z,14.10
2019-05-11T13:10:28.439Z,14.10
2019-05-11T13:12:58.246Z,13.80
2019-05-11T13:15:28.202Z,13.60
2019-05-11T13:17:58.134Z,14.00
2019-05-11T13:20:28.545Z,13.70
2019-05-11T13:22:58.707Z,13.80
2019-05-11T13:25:28.377Z,13.70
2019-05-11T13:27:58.069Z,13.70
2019-05-11T13:30:27.948Z,13.90
2019-05-11T13:32:58.003Z,13.90
2019-05-11T13:35:28.466Z,13.40
2019-05-11T13:37:58.490Z,13.60
2019-05-11T13:40:28.020Z,13.50
2019-05-11T13:42:58.108Z,13.60
2019-05-11T13:45:28.234Z,13.80
2019-05-11T13:47:59.313Z,14.10
2019-05-11T13:50:29.681Z,13.90
2019-05-11T13:52:58.896Z,13.90
2019-05-11T13:55:28.434Z,13.60
2019-05-11T13:57:58.047Z,13.50
2019-05-11T14:00:28.870Z,13.60
2019-05-11T14:03:00.254Z,13.70
2019-05-11T14:05:29.668Z,13.90
2019-05-11T14:07:59.028Z,13.70
2019-05-11T14:10:28.381Z,14.00
2019-05-11T14:12:58.282Z,13.80
2019-05-11T14:15:28.162Z,12.70
2019-05-11T14:18:05.714Z,12.70
2019-05-11T14:20:28.992Z,12.30
2019-05-11T14:22:58.579Z,12.70
2019-05-11T14:25:28.118Z,12.90
2019-05-11T14:27:59.366Z,12.70
2019-05-11T14:30:28.274Z,12.60
2019-05-11T14:32:58.078Z,12.70
2019-05-11T14:35:27.977Z,12.50
2019-05-11T14:37:58.829Z,12.50
2019-05-11T14:40:28.284Z,12.40
2019-05-11T14:42:58.074Z,12.60
2019-05-11T14:45:28.812Z,12.50
2019-05-11T14:47:58.334Z,12.70
2019-05-11T14:50:28.144Z,12.70
2019-05-11T14:52:58.101Z,12.60
2019-05-11T14:55:28.934Z,12.70
2019-05-11T14:57:58.205Z,12.70
2019-05-11T15:00:29.050Z,12.80
2019-05-11T15:02:58.550Z,12.90
2019-05-11T15:05:28.434Z,12.60
2019-05-11T15:07:58.178Z,12.70
2019-05-11T15:10:27.999Z,12.50
2019-05-11T15:12:59.092Z,12.60
2019-05-11T15:15:28.477Z,12.70
2019-05-11T15:17:58.260Z,12.70
2019-05-11T15:20:28.495Z,12.40
2019-05-11T15:22:58.202Z,12.70
2019-05-11T15:25:28.892Z,12.70
2019-05-11T15:27:58.568Z,12.70
2019-05-11T15:30:28.742Z,12.80
2019-05-11T15:32:58.574Z,13.00
2019-05-11T15:35:28.611Z,12.90
2019-05-11T15:37:58.325Z,13.10
2019-05-11T15:40:28.061Z,13.10
2019-05-11T15:42:58.539Z,13.10
2019-05-11T15:45:27.936Z,13.10
2019-05-11T15:47:58.974Z,13.00
2019-05-11T15:50:29.123Z,13.10
2019-05-11T15:52:58.593Z,13.10
2019-05-11T15:55:27.989Z,13.10
2019-05-11T15:57:57.133Z,13.30
2019-05-11T16:00:26.412Z,13.50
2019-05-11T16:02:57.824Z,14.10
2019-05-11T16:05:28.553Z,12.70
2019-05-11T16:07:58.830Z,12.50
2019-05-11T16:10:28.493Z,12.50
2019-05-11T16:12:58.665Z,12.50
2019-05-11T16:15:28.086Z,12.40
2019-05-11T16:17:57.821Z,12.50
2019-05-11T16:20:28.554Z,12.50
2019-05-11T16:22:58.050Z,12.20
2019-05-11T16:25:28.066Z,13.50
2019-05-11T16:27:57.500Z,10.80
2019-05-11T16:30:28.825Z,10.30
2019-05-11T16:32:58.074Z,10.10
2019-05-11T16:35:28.107Z,9.80
2019-05-11T16:37:59.146Z,9.80
2019-05-11T16:40:29.579Z,9.70
2019-05-11T16:42:59.028Z,9.70
2019-05-11T16:45:28.334Z,9.70
2019-05-11T16:47:58.827Z,9.80
2019-05-11T16:50:28.361Z,9.90
2019-05-11T16:52:58.565Z,9.80
2019-05-11T16:55:27.722Z,9.80
2019-05-11T16:57:58.821Z,9.80
2019-05-11T17:00:27.534Z,9.70
2019-05-11T17:02:57.747Z,9.80
2019-05-11T17:05:33.181Z,9.60
2019-05-11T17:07:58.821Z,9.60
2019-05-11T17:10:28.505Z,9.80
2019-05-11T17:12:58.181Z,9.70
2019-05-11T17:15:28.881Z,9.80
2019-05-11T17:17:58.746Z,9.90
2019-05-11T17:20:28.227Z,9.90
2019-05-11T17:22:57.567Z,9.80
2019-05-11T17:25:28.730Z,9.90
2019-05-11T17:27:58.790Z,9.90
2019-05-11T17:30:28.211Z,9.60
2019-05-11T17:32:59.357Z,9.70
2019-05-11T17:35:28.596Z,9.80
2019-05-11T17:37:57.707Z,10.10
2019-05-11T17:40:28.483Z,9.90
2019-05-11T17:42:58.605Z,9.90
2019-05-11T17:45:27.999Z,9.80
2019-05-11T17:47:58.280Z,9.80
2019-05-11T17:50:28.161Z,9.80
2019-05-11T17:52:57.416Z,9.80
2019-05-11T17:55:28.643Z,9.70
2019-05-11T17:57:58.267Z,9.70
2019-05-11T18:00:28.333Z,9.80
2019-05-11T18:02:58.317Z,9.80
2019-05-11T18:05:27.779Z,9.70
2019-05-11T18:07:58.038Z,9.70
2019-05-11T18:10:28.282Z,9.70
2019-05-11T18:12:57.921Z,9.70
2019-05-11T18:15:27.318Z,9.70
2019-05-11T18:17:58.750Z,9.70
2019-05-11T18:20:28.663Z,9.60
2019-05-11T18:22:58.514Z,9.50
2019-05-11T18:25:28.726Z,9.60
2019-05-11T18:27:58.232Z,9.40
2019-05-11T18:30:29.320Z,9.40
2019-05-11T18:32:59.403Z,10.40
2019-05-11T18:35:28.975Z,9.80
2019-05-11T18:37:58.099Z,9.60
2019-05-11T18:40:28.677Z,9.50
2019-05-11T18:42:57.984Z,9.50
2019-05-11T18:45:28.780Z,9.10
2019-05-11T18:47:58.077Z,9.20
2019-05-11T18:50:30.796Z,9.30
2019-05-11T18:52:58.289Z,9.40
2019-05-11T18:55:28.056Z,9.40
2019-05-11T18:57:58.075Z,9.50
2019-05-11T19:00:27.708Z,9.60
2019-05-11T19:02:58.138Z,9.40
2019-05-11T19:05:29.171Z,9.20
2019-05-11T19:07:58.504Z,9.20
2019-05-11T19:10:27.930Z,8.90
2019-05-11T19:12:58.893Z,8.90
2019-05-11T19:15:28.396Z,8.80
2019-05-11T19:17:58.122Z,9.00
2019-05-11T19:20:28.309Z,8.80
2019-05-11T19:22:59.020Z,8.80
2019-05-11T19:25:28.476Z,8.80
2019-05-11T19:27:59.001Z,8.80
2019-05-11T19:30:28.373Z,8.70
2019-05-11T19:32:58.987Z,8.60
2019-05-11T19:35:28.800Z,8.80
2019-05-11T19:37:57.974Z,8.60
2019-05-11T19:40:27.307Z,8.30
2019-05-11T19:42:58.986Z,8.50
2019-05-11T19:45:29.353Z,8.70
2019-05-11T19:47:59.014Z,8.40
2019-05-11T19:50:28.337Z,8.30
2019-05-11T19:52:57.955Z,8.20
2019-05-11T19:55:28.565Z,8.10
2019-05-11T19:57:57.841Z,8.40
2019-05-11T20:00:27.193Z,8.20
2019-05-11T20:02:58.361Z,8.30
2019-05-11T20:05:28.765Z,8.20
2019-05-11T20:07:58.743Z,8.10
2019-05-11T20:10:28.032Z,8.10
2019-05-11T20:12:58.756Z,8.10
2019-05-11T20:15:28.091Z,8.00
2019-05-11T20:17:58.699Z,7.90
2019-05-11T20:20:28.544Z,8.00
2019-05-11T20:22:58.580Z,8.10
2019-05-11T20:25:28.780Z,8.10
2019-05-11T20:27:58.615Z,8.10
2019-05-11T20:30:27.748Z,8.10
2019-05-11T20:32:57.153Z,7.90
2019-05-11T20:35:28.021Z,8.00
2019-05-11T20:37:58.119Z,7.90
2019-05-11T20:40:28.529Z,7.80
2019-05-11T20:42:58.703Z,8.00
2019-05-11T20:45:28.691Z,8.00
2019-05-11T20:47:57.892Z,7.90
2019-05-11T20:50:26.993Z,8.00
2019-05-11T20:52:58.087Z,8.00
2019-05-11T20:55:28.424Z,8.10
2019-05-11T20:57:58.474Z,7.80
2019-05-11T21:00:28.207Z,7.70
2019-05-11T21:02:58.841Z,7.80
2019-05-11T21:05:28.460Z,7.70
2019-05-11T21:07:58.105Z,7.90
2019-05-11T21:10:28.090Z,8.00
2019-05-11T21:12:57.699Z,7.80
2019-05-11T21:15:28.130Z,7.70
2019-05-11T21:17:58.613Z,7.90
2019-05-11T21:20:28.789Z,7.80
2019-05-11T21:22:58.422Z,7.80
2019-05-11T21:25:28.719Z,7.70
2019-05-11T21:27:58.093Z,7.70
2019-05-11T21:30:27.204Z,7.70
2019-05-11T21:32:58.206Z,7.80
2019-05-11T21:35:28.101Z,7.90
2019-05-11T21:37:58.120Z,7.80
2019-05-11T21:40:29.060Z,7.80
2019-05-11T21:42:58.594Z,7.90
2019-05-11T21:45:28.462Z,7.70
2019-05-11T21:47:57.954Z,7.80
2019-05-11T21:50:27.922Z,7.70
2019-05-11T21:52:58.999Z,7.70
2019-05-11T21:55:29.239Z,7.80
2019-05-11T21:57:58.549Z,7.90
2019-05-11T22:00:29.843Z,7.90
2019-05-11T22:02:59.633Z,7.80
2019-05-11T22:05:29.122Z,7.90
2019-05-11T22:07:58.460Z,7.80
2019-05-11T22:10:28.451Z,7.90
2019-05-11T22:12:57.876Z,8.00
2019-05-11T22:15:28.498Z,7.90
2019-05-11T22:17:58.514Z,7.90
2019-05-11T22:20:28.773Z,8.10
2019-05-11T22:22:58.342Z,8.20
2019-05-11T22:25:28.706Z,7.90
2019-05-11T22:27:57.933Z,7.90
2019-05-11T22:30:27.794Z,7.90
2019-05-11T22:32:58.372Z,7.80
2019-05-11T22:35:28.712Z,7.90
2019-05-11T22:37:57.932Z,8.00
2019-05-11T22:40:28.112Z,8.00
2019-05-11T22:43:00.837Z,8.00
2019-05-11T22:45:28.423Z,7.90
2019-05-11T22:47:58.509Z,8.00
2019-05-11T22:50:29.082Z,8.00
2019-05-11T22:52:58.481Z,8.10
2019-05-11T22:55:27.842Z,8.00
2019-05-11T22:57:57.906Z,8.00
2019-05-11T23:00:39.970Z,8.00
2019-05-11T23:03:11.014Z,8.10
2019-05-11T23:05:40.931Z,8.10
2019-05-11T23:08:10.420Z,7.80
2019-05-11T23:10:39.512Z,7.90
2019-05-11T23:13:11.206Z,8.00
2019-05-11T23:15:40.419Z,8.00
2019-05-11T23:18:09.945Z,8.00
2019-05-11T23:20:39.317Z,8.00
2019-05-11T23:23:08.999Z,8.00
2019-05-11T23:25:38.133Z,8.10
2019-05-11T23:28:07.206Z,8.00
2019-05-11T23:30:38.987Z,8.00
2019-05-11T23:33:08.050Z,8.00
2019-05-11T23:35:38.256Z,8.10
2019-05-11T23:38:07.873Z,8.10
2019-05-11T23:40:37.986Z,8.00
2019-05-11T23:43:08.742Z,8.00
2019-05-11T23:45:38.528Z,7.80
2019-05-11T23:48:07.896Z,7.90
2019-05-11T23:50:38.634Z,7.90
2019-05-11T23:53:10.369Z,7.90
2019-05-11T23:55:38.968Z,7.80
2019-05-11T23:58:08.403Z,7.80
